Terminal Aerodrome Forecast
Issued by NWS

Home | Current Version | Previous Version | Text Only | Print | Product List | Glossary On
Versions: 1 2 3 4 5 6 7 8 9 10 11 12 13 14 15 16 17 18 19 20 21 22 23 24 25 26 27 28 29 30 31
626
FTUS41 KOKX 201120
TAFTEB
TAF
KTEB 201120Z 2012/2118 22010KT P6SM SCT008 OVC010
      TEMPO 2012/2014 2SM BR BKN005
     FM201700 25008G16KT P6SM VCSH BKN025
     FM202100 28008G14KT P6SM VCSH BKN035
     FM202300 32007KT P6SM BKN250
     FM210200 VRB04KT P6SM SCT250=

USA.gov is the U.S. government's official web portal to all federal, state and local government web resources and services.